Terminal Aerodrome Forecast
Issued by NWS Quad Cities IA IL

Home | Current Version | Previous Version | Text Only | Print | Product List | Glossary On
Versions: 1 2 3 4 5 6 7 8 9 10 11 12 13 14 15 16 17 18 19 20 21
000
FTUS43 KDVN 272325
TAFMLI
TAF
KMLI 272325Z 2800/2824 28007KT P6SM BKN200
     FM280600 32008KT P6SM SCT040 BKN060
     FM281000 33010KT P6SM BKN040
     FM281500 34011G17KT P6SM OVC035
     FM281700 34013G19KT P6SM OVC045=

USA.gov is the U.S. government's official web portal to all federal, state and local government web resources and services.